Terminal Aerodrome Forecast
Issued by NWS Grand Forks, ND

Home | Current Version | Previous Version | Graphics & Text | Print | Product List | Glossary On
Versions: 1 2 3 4 5 6 7 8 9 10 11 12 13 14 15 16
000
FTUS43 KFGF 202334
TAFFAR
TAF
KFAR 202334Z 2100/2124 35005KT P6SM FEW250
     FM210900 15005KT P6SM BKN150
     FM211800 17013G20KT P6SM SCT130
     FM212200 20011KT P6SM SCT150
     FM212300 23010KT P6SM SCT060=

USA.gov is the U.S. government's official web portal to all federal, state and local government web resources and services.